sensor_id;sensor_type;location;lat;lon;timestamp;temperature;humidity
2106;DHT22;1059;52.548;13.408;2023-02-02T00:01:17;4.80;99.90
2106;DHT22;1059;52.548;13.408;2023-02-02T00:03:44;4.90;99.90
2106;DHT22;1059;52.548;13.408;2023-02-02T00:06:12;4.90;99.90
2106;DHT22;1059;52.548;13.408;2023-02-02T00:08:39;4.90;99.90
2106;DHT22;1059;52.548;13.408;2023-02-02T00:11:06;4.90;99.90
2106;DHT22;1059;52.548;13.408;2023-02-02T00:13:33;5.00;99.90
2106;DHT22;1059;52.548;13.408;2023-02-02T00:19:02;5.00;99.90
2106;DHT22;1059;52.548;13.408;2023-02-02T00:21:31;5.00;99.90
2106;DHT22;1059;52.548;13.408;2023-02-02T00:23:58;5.10;99.90
2106;DHT22;1059;52.548;13.408;2023-02-02T00:26:26;5.00;99.90
2106;DHT22;1059;52.548;13.408;2023-02-02T00:28:53;5.10;99.90
2106;DHT22;1059;52.548;13.408;2023-02-02T00:31:20;5.10;99.90
2106;DHT22;1059;52.548;13.408;2023-02-02T00:33:48;5.10;99.90
2106;DHT22;1059;52.548;13.408;2023-02-02T00:36:15;5.10;99.90
2106;DHT22;1059;52.548;13.408;2023-02-02T00:38:44;5.10;99.90
2106;DHT22;1059;52.548;13.408;2023-02-02T00:41:11;5.10;99.90
2106;DHT22;1059;52.548;13.408;2023-02-02T00:43:38;5.10;99.90
2106;DHT22;1059;52.548;13.408;2023-02-02T00:46:09;5.10;99.90
2106;DHT22;1059;52.548;13.408;2023-02-02T00:48:34;5.10;99.90
2106;DHT22;1059;52.548;13.408;2023-02-02T00:51:01;5.00;99.90
2106;DHT22;1059;52.548;13.408;2023-02-02T00:53:29;5.00;99.90
2106;DHT22;1059;52.548;13.408;2023-02-02T00:55:57;4.90;99.90
2106;DHT22;1059;52.548;13.408;2023-02-02T00:58:24;4.90;99.90
2106;DHT22;1059;52.548;13.408;2023-02-02T01:00:51;4.90;99.90
2106;DHT22;1059;52.548;13.408;2023-02-02T01:03:18;4.80;99.90
2106;DHT22;1059;52.548;13.408;2023-02-02T01:05:45;4.80;99.90
2106;DHT22;1059;52.548;13.408;2023-02-02T01:08:12;4.70;99.90
2106;DHT22;1059;52.548;13.408;2023-02-02T01:10:39;4.70;99.90
2106;DHT22;1059;52.548;13.408;2023-02-02T01:13:07;4.60;99.90
2106;DHT22;1059;52.548;13.408;2023-02-02T01:15:34;4.60;99.90
2106;DHT22;1059;52.548;13.408;2023-02-02T01:18:00;4.60;99.90
2106;DHT22;1059;52.548;13.408;2023-02-02T01:20:27;4.60;99.90
2106;DHT22;1059;52.548;13.408;2023-02-02T01:22:56;4.50;99.90
2106;DHT22;1059;52.548;13.408;2023-02-02T01:25:23;4.50;99.90
2106;DHT22;1059;52.548;13.408;2023-02-02T01:27:49;4.50;99.90
2106;DHT22;1059;52.548;13.408;2023-02-02T01:30:18;4.50;99.90
2106;DHT22;1059;52.548;13.408;2023-02-02T01:32:45;4.50;99.90
2106;DHT22;1059;52.548;13.408;2023-02-02T01:35:12;4.50;99.90
2106;DHT22;1059;52.548;13.408;2023-02-02T01:37:39;4.50;99.90
2106;DHT22;1059;52.548;13.408;2023-02-02T01:40:07;4.50;99.90
2106;DHT22;1059;52.548;13.408;2023-02-02T01:42:34;4.40;99.90
2106;DHT22;1059;52.548;13.408;2023-02-02T01:47:51;4.50;99.90
2106;DHT22;1059;52.548;13.408;2023-02-02T01:50:21;4.50;99.90
2106;DHT22;1059;52.548;13.408;2023-02-02T01:52:51;4.50;99.90
2106;DHT22;1059;52.548;13.408;2023-02-02T01:55:21;4.50;99.90
2106;DHT22;1059;52.548;13.408;2023-02-02T01:57:51;4.50;99.90
2106;DHT22;1059;52.548;13.408;2023-02-02T02:00:20;4.50;99.90
2106;DHT22;1059;52.548;13.408;2023-02-02T02:02:52;4.60;99.90
2106;DHT22;1059;52.548;13.408;2023-02-02T02:05:26;4.50;99.90
2106;DHT22;1059;52.548;13.408;2023-02-02T02:08:00;4.50;99.90
2106;DHT22;1059;52.548;13.408;2023-02-02T02:10:27;4.50;99.90
2106;DHT22;1059;52.548;13.408;2023-02-02T02:12:54;4.50;99.90
2106;DHT22;1059;52.548;13.408;2023-02-02T02:15:21;4.60;99.90
2106;DHT22;1059;52.548;13.408;2023-02-02T02:18:27;4.60;99.90
2106;DHT22;1059;52.548;13.408;2023-02-02T02:21:25;4.60;99.90
2106;DHT22;1059;52.548;13.408;2023-02-02T02:27:56;4.80;99.90
2106;DHT22;1059;52.548;13.408;2023-02-02T02:30:40;4.80;99.90
2106;DHT22;1059;52.548;13.408;2023-02-02T02:33:18;4.90;99.90
2106;DHT22;1059;52.548;13.408;2023-02-02T02:35:54;4.90;99.90
2106;DHT22;1059;52.548;13.408;2023-02-02T02:38:29;5.00;99.90
2106;DHT22;1059;52.548;13.408;2023-02-02T02:41:04;5.00;99.90
2106;DHT22;1059;52.548;13.408;2023-02-02T02:43:38;5.00;99.90
2106;DHT22;1059;52.548;13.408;2023-02-02T02:46:06;5.10;99.90
2106;DHT22;1059;52.548;13.408;2023-02-02T02:48:35;5.20;99.90
2106;DHT22;1059;52.548;13.408;2023-02-02T02:51:05;5.20;99.90
2106;DHT22;1059;52.548;13.408;2023-02-02T02:53:34;5.20;99.90
2106;DHT22;1059;52.548;13.408;2023-02-02T02:56:07;5.20;99.90
2106;DHT22;1059;52.548;13.408;2023-02-02T02:58:45;5.30;99.90
2106;DHT22;1059;52.548;13.408;2023-02-02T03:01:20;5.30;99.90
2106;DHT22;1059;52.548;13.408;2023-02-02T03:04:03;5.30;99.90
2106;DHT22;1059;52.548;13.408;2023-02-02T03:06:36;5.40;99.90
2106;DHT22;1059;52.548;13.408;2023-02-02T03:09:08;5.40;99.90
2106;DHT22;1059;52.548;13.408;2023-02-02T03:11:36;5.30;99.90
2106;DHT22;1059;52.548;13.408;2023-02-02T03:14:03;5.30;99.90
2106;DHT22;1059;52.548;13.408;2023-02-02T03:16:34;5.40;99.90
2106;DHT22;1059;52.548;13.408;2023-02-02T03:19:02;5.40;99.90
2106;DHT22;1059;52.548;13.408;2023-02-02T03:21:30;5.40;99.90
2106;DHT22;1059;52.548;13.408;2023-02-02T03:23:57;5.40;99.90
2106;DHT22;1059;52.548;13.408;2023-02-02T03:26:24;5.50;99.90
2106;DHT22;1059;52.548;13.408;2023-02-02T03:28:53;5.50;99.90
2106;DHT22;1059;52.548;13.408;2023-02-02T03:31:21;5.40;99.90
2106;DHT22;1059;52.548;13.408;2023-02-02T03:33:47;5.50;99.90
2106;DHT22;1059;52.548;13.408;2023-02-02T03:36:16;5.50;99.90
2106;DHT22;1059;52.548;13.408;2023-02-02T03:38:42;5.50;99.90
2106;DHT22;1059;52.548;13.408;2023-02-02T03:41:09;5.40;99.90
2106;DHT22;1059;52.548;13.408;2023-02-02T03:43:36;5.40;99.90
2106;DHT22;1059;52.548;13.408;2023-02-02T03:46:04;5.40;99.90
2106;DHT22;1059;52.548;13.408;2023-02-02T03:48:34;5.30;99.90
2106;DHT22;1059;52.548;13.408;2023-02-02T03:51:05;5.30;99.90
2106;DHT22;1059;52.548;13.408;2023-02-02T03:53:34;5.30;99.90
2106;DHT22;1059;52.548;13.408;2023-02-02T03:56:01;5.30;99.90
2106;DHT22;1059;52.548;13.408;2023-02-02T03:58:28;5.30;99.90
2106;DHT22;1059;52.548;13.408;2023-02-02T04:01:00;5.30;99.90
2106;DHT22;1059;52.548;13.408;2023-02-02T04:03:27;5.30;99.90
2106;DHT22;1059;52.548;13.408;2023-02-02T04:05:54;5.30;99.90
2106;DHT22;1059;52.548;13.408;2023-02-02T04:08:21;5.30;99.90
2106;DHT22;1059;52.548;13.408;2023-02-02T04:10:49;5.30;99.90
2106;DHT22;1059;52.548;13.408;2023-02-02T04:13:16;5.30;99.90
2106;DHT22;1059;52.548;13.408;2023-02-02T04:15:43;5.30;99.90
2106;DHT22;1059;52.548;13.408;2023-02-02T04:18:10;5.40;99.90
2106;DHT22;1059;52.548;13.408;2023-02-02T04:20:37;5.40;99.90
2106;DHT22;1059;52.548;13.408;2023-02-02T04:23:03;5.40;99.90
2106;DHT22;1059;52.548;13.408;2023-02-02T04:25:30;5.40;99.90
2106;DHT22;1059;52.548;13.408;2023-02-02T04:27:59;5.40;99.90
2106;DHT22;1059;52.548;13.408;2023-02-02T04:30:25;5.40;99.90
2106;DHT22;1059;52.548;13.408;2023-02-02T04:32:53;5.40;99.90
2106;DHT22;1059;52.548;13.408;2023-02-02T04:35:20;5.40;99.90
2106;DHT22;1059;52.548;13.408;2023-02-02T04:37:47;5.40;99.90
2106;DHT22;1059;52.548;13.408;2023-02-02T04:40:14;5.50;99.90
2106;DHT22;1059;52.548;13.408;2023-02-02T04:42:41;5.50;99.90
2106;DHT22;1059;52.548;13.408;2023-02-02T04:45:11;5.50;99.90
2106;DHT22;1059;52.548;13.408;2023-02-02T04:47:38;5.50;99.90
2106;DHT22;1059;52.548;13.408;2023-02-02T04:50:06;5.50;99.90
2106;DHT22;1059;52.548;13.408;2023-02-02T04:52:33;5.50;99.90
2106;DHT22;1059;52.548;13.408;2023-02-02T04:55:00;5.60;99.90
2106;DHT22;1059;52.548;13.408;2023-02-02T04:57:27;5.60;99.90
2106;DHT22;1059;52.548;13.408;2023-02-02T04:59:53;5.60;99.90
2106;DHT22;1059;52.548;13.408;2023-02-02T05:02:22;5.60;99.90
2106;DHT22;1059;52.548;13.408;2023-02-02T05:04:48;5.60;99.90
2106;DHT22;1059;52.548;13.408;2023-02-02T05:07:15;5.60;99.90
2106;DHT22;1059;52.548;13.408;2023-02-02T05:09:42;5.70;99.90
2106;DHT22;1059;52.548;13.408;2023-02-02T05:12:09;5.60;99.90
2106;DHT22;1059;52.548;13.408;2023-02-02T05:14:36;5.60;99.90
2106;DHT22;1059;52.548;13.408;2023-02-02T05:17:03;5.50;99.90
2106;DHT22;1059;52.548;13.408;2023-02-02T05:19:31;5.50;99.90
2106;DHT22;1059;52.548;13.408;2023-02-02T05:21:58;5.50;99.90
2106;DHT22;1059;52.548;13.408;2023-02-02T05:24:24;5.50;99.90
2106;DHT22;1059;52.548;13.408;2023-02-02T05:26:52;5.40;99.90
2106;DHT22;1059;52.548;13.408;2023-02-02T05:29:23;5.50;99.90
2106;DHT22;1059;52.548;13.408;2023-02-02T05:31:50;5.50;99.90
2106;DHT22;1059;52.548;13.408;2023-02-02T05:34:16;5.50;99.90
2106;DHT22;1059;52.548;13.408;2023-02-02T05:36:45;5.40;99.90
2106;DHT22;1059;52.548;13.408;2023-02-02T05:39:12;5.40;99.90
2106;DHT22;1059;52.548;13.408;2023-02-02T05:41:39;5.40;99.90
2106;DHT22;1059;52.548;13.408;2023-02-02T05:44:07;5.40;99.90
2106;DHT22;1059;52.548;13.408;2023-02-02T05:46:34;5.50;99.90
2106;DHT22;1059;52.548;13.408;2023-02-02T05:49:01;5.50;99.90
2106;DHT22;1059;52.548;13.408;2023-02-02T05:51:32;5.50;99.90
2106;DHT22;1059;52.548;13.408;2023-02-02T05:54:01;5.50;99.90
2106;DHT22;1059;52.548;13.408;2023-02-02T05:56:28;5.50;99.90
2106;DHT22;1059;52.548;13.408;2023-02-02T05:58:54;5.50;99.90
2106;DHT22;1059;52.548;13.408;2023-02-02T06:01:21;5.50;99.90
2106;DHT22;1059;52.548;13.408;2023-02-02T06:03:48;5.50;99.90
2106;DHT22;1059;52.548;13.408;2023-02-02T06:06:15;5.50;99.90
2106;DHT22;1059;52.548;13.408;2023-02-02T06:08:42;5.50;99.90
2106;DHT22;1059;52.548;13.408;2023-02-02T06:11:11;5.50;99.90
2106;DHT22;1059;52.548;13.408;2023-02-02T06:13:38;5.50;99.90
2106;DHT22;1059;52.548;13.408;2023-02-02T06:16:06;5.50;99.90
2106;DHT22;1059;52.548;13.408;2023-02-02T06:18:34;5.50;99.90
2106;DHT22;1059;52.548;13.408;2023-02-02T06:21:03;5.50;99.90
2106;DHT22;1059;52.548;13.408;2023-02-02T06:23:31;5.50;99.90
2106;DHT22;1059;52.548;13.408;2023-02-02T06:25:59;5.50;99.90
2106;DHT22;1059;52.548;13.408;2023-02-02T06:28:29;5.40;99.90
2106;DHT22;1059;52.548;13.408;2023-02-02T06:31:01;5.50;99.90
2106;DHT22;1059;52.548;13.408;2023-02-02T06:33:28;5.50;99.90
2106;DHT22;1059;52.548;13.408;2023-02-02T06:35:58;5.50;99.90
2106;DHT22;1059;52.548;13.408;2023-02-02T06:38:25;5.50;99.90
2106;DHT22;1059;52.548;13.408;2023-02-02T06:40:51;5.50;99.90
2106;DHT22;1059;52.548;13.408;2023-02-02T06:43:18;5.50;99.90
2106;DHT22;1059;52.548;13.408;2023-02-02T06:45:47;5.50;99.90
2106;DHT22;1059;52.548;13.408;2023-02-02T06:48:13;5.50;99.90
2106;DHT22;1059;52.548;13.408;2023-02-02T06:50:40;5.50;99.90
2106;DHT22;1059;52.548;13.408;2023-02-02T06:53:07;5.50;99.90
2106;DHT22;1059;52.548;13.408;2023-02-02T06:55:34;5.50;99.90
2106;DHT22;1059;52.548;13.408;2023-02-02T06:58:01;5.50;99.90
2106;DHT22;1059;52.548;13.408;2023-02-02T07:00:29;5.50;99.90
2106;DHT22;1059;52.548;13.408;2023-02-02T07:02:57;5.50;99.90
2106;DHT22;1059;52.548;13.408;2023-02-02T07:05:26;5.50;99.90
2106;DHT22;1059;52.548;13.408;2023-02-02T07:07:54;5.50;99.90
2106;DHT22;1059;52.548;13.408;2023-02-02T07:10:21;5.40;99.90
2106;DHT22;1059;52.548;13.408;2023-02-02T07:12:48;5.40;99.90
2106;DHT22;1059;52.548;13.408;2023-02-02T07:15:15;5.40;99.90
2106;DHT22;1059;52.548;13.408;2023-02-02T07:17:41;5.40;99.90
2106;DHT22;1059;52.548;13.408;2023-02-02T07:20:10;5.40;99.90
2106;DHT22;1059;52.548;13.408;2023-02-02T07:22:38;5.40;99.90
2106;DHT22;1059;52.548;13.408;2023-02-02T07:25:05;5.40;99.90
2106;DHT22;1059;52.548;13.408;2023-02-02T07:27:33;5.50;99.90
2106;DHT22;1059;52.548;13.408;2023-02-02T07:30:00;5.50;99.90
2106;DHT22;1059;52.548;13.408;2023-02-02T07:32:26;5.50;99.90
2106;DHT22;1059;52.548;13.408;2023-02-02T07:34:53;5.50;99.90
2106;DHT22;1059;52.548;13.408;2023-02-02T07:37:22;5.50;99.90
2106;DHT22;1059;52.548;13.408;2023-02-02T07:39:48;5.50;99.90
2106;DHT22;1059;52.548;13.408;2023-02-02T07:42:15;5.40;99.90
2106;DHT22;1059;52.548;13.408;2023-02-02T07:44:42;5.40;99.90
2106;DHT22;1059;52.548;13.408;2023-02-02T07:47:09;5.40;99.90
2106;DHT22;1059;52.548;13.408;2023-02-02T07:49:36;5.30;99.90
2106;DHT22;1059;52.548;13.408;2023-02-02T07:52:03;5.40;99.90
2106;DHT22;1059;52.548;13.408;2023-02-02T07:54:31;5.30;99.90
2106;DHT22;1059;52.548;13.408;2023-02-02T07:56:59;5.30;99.90
2106;DHT22;1059;52.548;13.408;2023-02-02T07:59:26;5.40;99.90
2106;DHT22;1059;52.548;13.408;2023-02-02T08:01:53;5.30;99.90
2106;DHT22;1059;52.548;13.408;2023-02-02T08:04:20;5.30;99.90
2106;DHT22;1059;52.548;13.408;2023-02-02T08:06:47;5.30;99.90
2106;DHT22;1059;52.548;13.408;2023-02-02T08:09:14;5.30;99.90
2106;DHT22;1059;52.548;13.408;2023-02-02T08:11:42;5.30;99.90
2106;DHT22;1059;52.548;13.408;2023-02-02T08:14:11;5.40;99.90
2106;DHT22;1059;52.548;13.408;2023-02-02T08:16:38;5.40;99.90
2106;DHT22;1059;52.548;13.408;2023-02-02T08:19:05;5.40;99.90
2106;DHT22;1059;52.548;13.408;2023-02-02T08:21:32;5.40;99.90
2106;DHT22;1059;52.548;13.408;2023-02-02T08:23:59;5.40;99.90
2106;DHT22;1059;52.548;13.408;2023-02-02T08:26:28;5.50;99.90
2106;DHT22;1059;52.548;13.408;2023-02-02T08:28:58;5.50;99.90
2106;DHT22;1059;52.548;13.408;2023-02-02T08:31:27;5.50;99.90
2106;DHT22;1059;52.548;13.408;2023-02-02T08:33:55;5.50;99.90
2106;DHT22;1059;52.548;13.408;2023-02-02T08:36:24;5.50;99.90
2106;DHT22;1059;52.548;13.408;2023-02-02T08:38:51;5.50;99.90
2106;DHT22;1059;52.548;13.408;2023-02-02T08:41:20;5.60;99.90
2106;DHT22;1059;52.548;13.408;2023-02-02T08:43:48;5.60;99.90
2106;DHT22;1059;52.548;13.408;2023-02-02T08:46:18;5.60;99.90
2106;DHT22;1059;52.548;13.408;2023-02-02T08:48:45;5.50;99.90
2106;DHT22;1059;52.548;13.408;2023-02-02T08:51:14;5.50;99.90
2106;DHT22;1059;52.548;13.408;2023-02-02T08:53:42;5.60;99.90
2106;DHT22;1059;52.548;13.408;2023-02-02T08:56:10;5.60;99.90
2106;DHT22;1059;52.548;13.408;2023-02-02T08:58:38;5.60;99.90
2106;DHT22;1059;52.548;13.408;2023-02-02T09:01:06;5.70;99.90
2106;DHT22;1059;52.548;13.408;2023-02-02T09:03:34;5.70;99.90
2106;DHT22;1059;52.548;13.408;2023-02-02T09:06:05;5.80;99.90
2106;DHT22;1059;52.548;13.408;2023-02-02T09:08:33;5.90;99.90
2106;DHT22;1059;52.548;13.408;2023-02-02T09:11:04;6.00;99.90
2106;DHT22;1059;52.548;13.408;2023-02-02T09:13:32;6.00;99.90
2106;DHT22;1059;52.548;13.408;2023-02-02T09:15:59;6.10;99.90
2106;DHT22;1059;52.548;13.408;2023-02-02T09:18:26;6.10;99.90
2106;DHT22;1059;52.548;13.408;2023-02-02T09:20:58;6.10;99.90
2106;DHT22;1059;52.548;13.408;2023-02-02T09:23:25;6.10;99.90
2106;DHT22;1059;52.548;13.408;2023-02-02T09:25:54;6.10;99.90
2106;DHT22;1059;52.548;13.408;2023-02-02T09:28:21;6.10;99.90
2106;DHT22;1059;52.548;13.408;2023-02-02T09:30:48;6.00;99.90
2106;DHT22;1059;52.548;13.408;2023-02-02T09:33:15;6.10;99.90
2106;DHT22;1059;52.548;13.408;2023-02-02T09:35:42;6.20;99.90
2106;DHT22;1059;52.548;13.408;2023-02-02T09:38:10;6.30;99.90
2106;DHT22;1059;52.548;13.408;2023-02-02T09:40:39;6.30;99.90
2106;DHT22;1059;52.548;13.408;2023-02-02T09:43:16;6.30;99.90
2106;DHT22;1059;52.548;13.408;2023-02-02T09:45:57;6.30;99.90
2106;DHT22;1059;52.548;13.408;2023-02-02T09:48:32;6.30;99.90
2106;DHT22;1059;52.548;13.408;2023-02-02T09:51:03;6.30;99.90
2106;DHT22;1059;52.548;13.408;2023-02-02T09:53:43;6.40;99.90
2106;DHT22;1059;52.548;13.408;2023-02-02T09:56:20;6.40;99.90
2106;DHT22;1059;52.548;13.408;2023-02-02T09:58:52;6.40;99.90
2106;DHT22;1059;52.548;13.408;2023-02-02T10:01:22;6.50;99.90
2106;DHT22;1059;52.548;13.408;2023-02-02T10:03:57;6.50;99.90
2106;DHT22;1059;52.548;13.408;2023-02-02T10:06:32;6.50;99.90
2106;DHT22;1059;52.548;13.408;2023-02-02T10:09:12;6.50;99.90
2106;DHT22;1059;52.548;13.408;2023-02-02T10:11:46;6.50;99.90
2106;DHT22;1059;52.548;13.408;2023-02-02T10:14:23;6.50;99.90
2106;DHT22;1059;52.548;13.408;2023-02-02T10:16:53;6.40;99.90
2106;DHT22;1059;52.548;13.408;2023-02-02T10:19:22;6.50;99.90
2106;DHT22;1059;52.548;13.408;2023-02-02T10:21:59;6.50;99.90
2106;DHT22;1059;52.548;13.408;2023-02-02T10:24:31;6.50;99.90
2106;DHT22;1059;52.548;13.408;2023-02-02T10:27:02;6.60;99.90
2106;DHT22;1059;52.548;13.408;2023-02-02T10:29:35;6.60;99.90
2106;DHT22;1059;52.548;13.408;2023-02-02T10:32:12;6.60;99.90
2106;DHT22;1059;52.548;13.408;2023-02-02T10:34:57;6.60;99.90
2106;DHT22;1059;52.548;13.408;2023-02-02T10:37:30;6.60;99.90
2106;DHT22;1059;52.548;13.408;2023-02-02T10:40:14;6.60;99.90
2106;DHT22;1059;52.548;13.408;2023-02-02T10:43:01;6.70;99.90
2106;DHT22;1059;52.548;13.408;2023-02-02T10:45:43;6.70;99.90
2106;DHT22;1059;52.548;13.408;2023-02-02T10:48:13;6.90;99.90
2106;DHT22;1059;52.548;13.408;2023-02-02T10:50:42;7.00;99.90
2106;DHT22;1059;52.548;13.408;2023-02-02T10:53:13;7.10;99.90
2106;DHT22;1059;52.548;13.408;2023-02-02T10:55:45;7.10;99.90
2106;DHT22;1059;52.548;13.408;2023-02-02T10:58:20;7.20;99.90
2106;DHT22;1059;52.548;13.408;2023-02-02T11:00:51;7.20;99.90
2106;DHT22;1059;52.548;13.408;2023-02-02T11:03:20;7.10;99.90
2106;DHT22;1059;52.548;13.408;2023-02-02T11:05:48;7.10;99.90
2106;DHT22;1059;52.548;13.408;2023-02-02T11:08:32;7.10;99.90
2106;DHT22;1059;52.548;13.408;2023-02-02T11:11:10;7.20;99.90
2106;DHT22;1059;52.548;13.408;2023-02-02T11:13:41;7.20;99.90
2106;DHT22;1059;52.548;13.408;2023-02-02T11:16:24;7.20;99.90
2106;DHT22;1059;52.548;13.408;2023-02-02T11:18:52;7.30;99.90
2106;DHT22;1059;52.548;13.408;2023-02-02T11:21:22;7.40;99.90
2106;DHT22;1059;52.548;13.408;2023-02-02T11:23:54;7.40;99.90
2106;DHT22;1059;52.548;13.408;2023-02-02T11:26:24;7.50;99.90
2106;DHT22;1059;52.548;13.408;2023-02-02T11:28:54;7.50;99.90
2106;DHT22;1059;52.548;13.408;2023-02-02T11:31:35;7.60;99.90
2106;DHT22;1059;52.548;13.408;2023-02-02T11:34:14;7.70;99.90
2106;DHT22;1059;52.548;13.408;2023-02-02T11:36:58;7.80;99.90
2106;DHT22;1059;52.548;13.408;2023-02-02T11:39:26;7.70;99.90
2106;DHT22;1059;52.548;13.408;2023-02-02T11:42:03;7.70;99.90
2106;DHT22;1059;52.548;13.408;2023-02-02T11:44:32;7.80;99.90
2106;DHT22;1059;52.548;13.408;2023-02-02T11:47:01;7.90;99.90
2106;DHT22;1059;52.548;13.408;2023-02-02T11:49:32;7.90;99.90
2106;DHT22;1059;52.548;13.408;2023-02-02T11:52:05;7.80;99.90
2106;DHT22;1059;52.548;13.408;2023-02-02T11:54:34;7.90;99.90
2106;DHT22;1059;52.548;13.408;2023-02-02T11:57:06;7.90;99.90
2106;DHT22;1059;52.548;13.408;2023-02-02T11:59:35;7.90;99.90
2106;DHT22;1059;52.548;13.408;2023-02-02T12:02:23;7.80;99.90
2106;DHT22;1059;52.548;13.408;2023-02-02T12:04:51;7.70;99.90
2106;DHT22;1059;52.548;13.408;2023-02-02T12:07:23;7.70;99.90
2106;DHT22;1059;52.548;13.408;2023-02-02T12:09:51;7.60;99.90
2106;DHT22;1059;52.548;13.408;2023-02-02T12:12:33;7.50;99.90
2106;DHT22;1059;52.548;13.408;2023-02-02T12:15:14;7.30;99.90
2106;DHT22;1059;52.548;13.408;2023-02-02T12:17:47;7.10;99.90
2106;DHT22;1059;52.548;13.408;2023-02-02T12:20:24;7.00;99.90
2106;DHT22;1059;52.548;13.408;2023-02-02T12:23:03;6.90;99.90
2106;DHT22;1059;52.548;13.408;2023-02-02T12:25:41;6.80;99.90
2106;DHT22;1059;52.548;13.408;2023-02-02T12:28:24;6.60;99.90
2106;DHT22;1059;52.548;13.408;2023-02-02T12:30:58;6.50;99.90
2106;DHT22;1059;52.548;13.408;2023-02-02T12:33:33;6.40;99.90
2106;DHT22;1059;52.548;13.408;2023-02-02T12:36:19;6.30;99.90
2106;DHT22;1059;52.548;13.408;2023-02-02T12:41:54;6.50;99.90
2106;DHT22;1059;52.548;13.408;2023-02-02T12:44:32;7.00;99.90
2106;DHT22;1059;52.548;13.408;2023-02-02T12:47:15;8.30;99.90
2106;DHT22;1059;52.548;13.408;2023-02-02T12:49:59;9.90;99.90
2106;DHT22;1059;52.548;13.408;2023-02-02T12:52:39;11.00;99.90
2106;DHT22;1059;52.548;13.408;2023-02-02T12:55:17;11.60;99.90
2106;DHT22;1059;52.548;13.408;2023-02-02T12:58:00;12.40;99.90
2106;DHT22;1059;52.548;13.408;2023-02-02T13:00:40;13.20;99.90
2106;DHT22;1059;52.548;13.408;2023-02-02T13:03:23;13.70;99.90
2106;DHT22;1059;52.548;13.408;2023-02-02T13:06:21;14.20;99.90
2106;DHT22;1059;52.548;13.408;2023-02-02T13:08:56;14.40;97.20
2106;DHT22;1059;52.548;13.408;2023-02-02T13:11:34;14.60;96.00
2106;DHT22;1059;52.548;13.408;2023-02-02T13:14:08;14.80;93.10
2106;DHT22;1059;52.548;13.408;2023-02-02T13:16:39;14.80;91.80
2106;DHT22;1059;52.548;13.408;2023-02-02T13:19:11;14.10;92.80
2106;DHT22;1059;52.548;13.408;2023-02-02T13:21:41;14.00;93.20
2106;DHT22;1059;52.548;13.408;2023-02-02T13:24:13;14.10;92.50
2106;DHT22;1059;52.548;13.408;2023-02-02T13:26:42;13.80;91.30
2106;DHT22;1059;52.548;13.408;2023-02-02T13:29:18;13.60;90.70
2106;DHT22;1059;52.548;13.408;2023-02-02T13:31:54;12.90;90.50
2106;DHT22;1059;52.548;13.408;2023-02-02T13:34:24;12.40;92.50
2106;DHT22;1059;52.548;13.408;2023-02-02T13:36:55;12.60;92.30
2106;DHT22;1059;52.548;13.408;2023-02-02T13:39:32;12.20;93.10
2106;DHT22;1059;52.548;13.408;2023-02-02T13:42:04;11.70;95.10
2106;DHT22;1059;52.548;13.408;2023-02-02T13:44:44;11.60;96.30
2106;DHT22;1059;52.548;13.408;2023-02-02T13:47:19;11.50;97.70
2106;DHT22;1059;52.548;13.408;2023-02-02T13:49:50;12.00;99.10
2106;DHT22;1059;52.548;13.408;2023-02-02T13:52:40;12.60;93.20
2106;DHT22;1059;52.548;13.408;2023-02-02T13:55:33;13.20;89.90
2106;DHT22;1059;52.548;13.408;2023-02-02T13:58:25;13.70;81.80
2106;DHT22;1059;52.548;13.408;2023-02-02T14:01:01;13.80;75.60
2106;DHT22;1059;52.548;13.408;2023-02-02T14:03:34;13.70;74.50
2106;DHT22;1059;52.548;13.408;2023-02-02T14:06:07;13.90;73.60
2106;DHT22;1059;52.548;13.408;2023-02-02T14:08:35;13.80;71.80
2106;DHT22;1059;52.548;13.408;2023-02-02T14:11:04;13.40;71.00
2106;DHT22;1059;52.548;13.408;2023-02-02T14:13:40;12.90;71.40
2106;DHT22;1059;52.548;13.408;2023-02-02T14:16:41;12.10;74.50
2106;DHT22;1059;52.548;13.408;2023-02-02T14:19:14;11.70;77.30
2106;DHT22;1059;52.548;13.408;2023-02-02T14:22:01;11.80;79.80
2106;DHT22;1059;52.548;13.408;2023-02-02T14:24:47;12.20;77.50
2106;DHT22;1059;52.548;13.408;2023-02-02T14:30:32;12.40;76.00
2106;DHT22;1059;52.548;13.408;2023-02-02T14:33:26;12.40;75.80
2106;DHT22;1059;52.548;13.408;2023-02-02T14:36:10;12.10;74.30
2106;DHT22;1059;52.548;13.408;2023-02-02T14:39:09;11.60;74.40
2106;DHT22;1059;52.548;13.408;2023-02-02T14:41:49;11.00;75.50
2106;DHT22;1059;52.548;13.408;2023-02-02T14:44:34;10.30;78.80
2106;DHT22;1059;52.548;13.408;2023-02-02T14:47:03;9.50;83.10
2106;DHT22;1059;52.548;13.408;2023-02-02T14:49:55;9.00;87.00
2106;DHT22;1059;52.548;13.408;2023-02-02T14:52:24;8.50;90.40
2106;DHT22;1059;52.548;13.408;2023-02-02T14:54:52;8.10;91.30
2106;DHT22;1059;52.548;13.408;2023-02-02T14:57:24;7.90;93.00
2106;DHT22;1059;52.548;13.408;2023-02-02T14:59:54;7.80;94.50
2106;DHT22;1059;52.548;13.408;2023-02-02T15:02:24;7.70;95.30
2106;DHT22;1059;52.548;13.408;2023-02-02T15:08:13;7.50;96.20
2106;DHT22;1059;52.548;13.408;2023-02-02T15:11:01;7.70;97.10
2106;DHT22;1059;52.548;13.408;2023-02-02T15:13:51;8.00;96.50
2106;DHT22;1059;52.548;13.408;2023-02-02T15:16:25;8.30;96.20
2106;DHT22;1059;52.548;13.408;2023-02-02T15:18:58;8.40;95.70
2106;DHT22;1059;52.548;13.408;2023-02-02T15:21:28;8.20;96.00
2106;DHT22;1059;52.548;13.408;2023-02-02T15:23:58;8.00;96.70
2106;DHT22;1059;52.548;13.408;2023-02-02T15:26:28;7.70;97.20
2106;DHT22;1059;52.548;13.408;2023-02-02T15:29:00;7.50;98.40
2106;DHT22;1059;52.548;13.408;2023-02-02T15:31:32;7.30;99.90
2106;DHT22;1059;52.548;13.408;2023-02-02T15:34:04;7.20;99.90
2106;DHT22;1059;52.548;13.408;2023-02-02T15:36:38;7.10;99.90
2106;DHT22;1059;52.548;13.408;2023-02-02T15:39:14;6.90;99.90
2106;DHT22;1059;52.548;13.408;2023-02-02T15:41:43;6.80;99.90
2106;DHT22;1059;52.548;13.408;2023-02-02T15:44:20;6.70;99.90
2106;DHT22;1059;52.548;13.408;2023-02-02T15:46:52;6.60;99.90
2106;DHT22;1059;52.548;13.408;2023-02-02T15:49:27;6.40;99.90
2106;DHT22;1059;52.548;13.408;2023-02-02T15:51:57;6.30;99.90
2106;DHT22;1059;52.548;13.408;2023-02-02T15:54:28;6.20;99.90
2106;DHT22;1059;52.548;13.408;2023-02-02T15:56:57;6.10;99.90
2106;DHT22;1059;52.548;13.408;2023-02-02T15:59:27;6.00;99.90
2106;DHT22;1059;52.548;13.408;2023-02-02T16:02:02;5.90;99.90
2106;DHT22;1059;52.548;13.408;2023-02-02T16:04:34;5.90;99.90
2106;DHT22;1059;52.548;13.408;2023-02-02T16:07:02;5.80;99.90
2106;DHT22;1059;52.548;13.408;2023-02-02T16:09:33;5.80;99.90
2106;DHT22;1059;52.548;13.408;2023-02-02T16:12:03;5.70;99.90
2106;DHT22;1059;52.548;13.408;2023-02-02T16:14:31;5.60;99.90
2106;DHT22;1059;52.548;13.408;2023-02-02T16:17:09;5.50;99.90
2106;DHT22;1059;52.548;13.408;2023-02-02T16:19:37;5.40;99.90
2106;DHT22;1059;52.548;13.408;2023-02-02T16:22:06;5.30;99.90
2106;DHT22;1059;52.548;13.408;2023-02-02T16:24:40;5.30;99.90
2106;DHT22;1059;52.548;13.408;2023-02-02T16:27:13;5.20;99.90
2106;DHT22;1059;52.548;13.408;2023-02-02T16:29:42;5.20;99.90
2106;DHT22;1059;52.548;13.408;2023-02-02T16:32:25;5.10;99.90
2106;DHT22;1059;52.548;13.408;2023-02-02T16:34:52;5.10;99.90
2106;DHT22;1059;52.548;13.408;2023-02-02T16:37:22;5.00;99.90
2106;DHT22;1059;52.548;13.408;2023-02-02T16:39:51;5.00;99.90
2106;DHT22;1059;52.548;13.408;2023-02-02T16:42:34;4.90;99.90
2106;DHT22;1059;52.548;13.408;2023-02-02T16:45:00;4.90;99.90